sensor_id;sensor_type;location;lat;lon;timestamp;temperature;humidity
20885;DHT22;10602;48.000;9.654;2022-11-15T00:01:35;4.20;99.90
20885;DHT22;10602;48.000;9.654;2022-11-15T00:04:05;4.20;99.90
20885;DHT22;10602;48.000;9.654;2022-11-15T00:06:36;4.20;99.90
20885;DHT22;10602;48.000;9.654;2022-11-15T00:09:06;4.20;99.90
20885;DHT22;10602;48.000;9.654;2022-11-15T00:11:37;4.10;99.90
20885;DHT22;10602;48.000;9.654;2022-11-15T00:14:09;4.10;99.90
20885;DHT22;10602;48.000;9.654;2022-11-15T00:16:38;4.10;99.90
20885;DHT22;10602;48.000;9.654;2022-11-15T00:19:07;4.10;99.90
20885;DHT22;10602;48.000;9.654;2022-11-15T00:21:38;4.10;99.90
20885;DHT22;10602;48.000;9.654;2022-11-15T00:24:13;4.10;99.90
20885;DHT22;10602;48.000;9.654;2022-11-15T00:26:42;4.00;99.90
20885;DHT22;10602;48.000;9.654;2022-11-15T00:29:14;4.00;99.90
20885;DHT22;10602;48.000;9.654;2022-11-15T00:31:44;3.90;99.90
20885;DHT22;10602;48.000;9.654;2022-11-15T00:34:16;3.90;99.90
20885;DHT22;10602;48.000;9.654;2022-11-15T00:36:46;3.80;99.90
20885;DHT22;10602;48.000;9.654;2022-11-15T00:39:23;3.80;99.90
20885;DHT22;10602;48.000;9.654;2022-11-15T00:41:52;3.80;99.90
20885;DHT22;10602;48.000;9.654;2022-11-15T00:44:24;3.70;99.90
20885;DHT22;10602;48.000;9.654;2022-11-15T00:46:55;3.70;99.90
20885;DHT22;10602;48.000;9.654;2022-11-15T00:49:23;3.70;99.90
20885;DHT22;10602;48.000;9.654;2022-11-15T00:51:54;3.70;99.90
20885;DHT22;10602;48.000;9.654;2022-11-15T00:54:22;3.60;99.90
20885;DHT22;10602;48.000;9.654;2022-11-15T00:56:49;3.60;99.90
20885;DHT22;10602;48.000;9.654;2022-11-15T00:59:17;3.50;99.90
20885;DHT22;10602;48.000;9.654;2022-11-15T01:01:44;3.50;99.90
20885;DHT22;10602;48.000;9.654;2022-11-15T01:04:12;3.50;99.90
20885;DHT22;10602;48.000;9.654;2022-11-15T01:06:40;3.50;99.90
20885;DHT22;10602;48.000;9.654;2022-11-15T01:09:10;3.50;99.90
20885;DHT22;10602;48.000;9.654;2022-11-15T01:11:40;3.50;99.90
20885;DHT22;10602;48.000;9.654;2022-11-15T01:14:30;3.40;99.90
20885;DHT22;10602;48.000;9.654;2022-11-15T01:17:00;3.40;99.90
20885;DHT22;10602;48.000;9.654;2022-11-15T01:19:28;3.30;99.90
20885;DHT22;10602;48.000;9.654;2022-11-15T01:22:11;3.30;99.90
20885;DHT22;10602;48.000;9.654;2022-11-15T01:24:38;3.20;99.90
20885;DHT22;10602;48.000;9.654;2022-11-15T01:27:13;3.20;99.90
20885;DHT22;10602;48.000;9.654;2022-11-15T01:30:01;3.20;99.90
20885;DHT22;10602;48.000;9.654;2022-11-15T06:56:39;4.50;99.90
20885;DHT22;10602;48.000;9.654;2022-11-15T06:59:07;5.20;99.90
20885;DHT22;10602;48.000;9.654;2022-11-15T07:01:34;5.70;99.90
20885;DHT22;10602;48.000;9.654;2022-11-15T07:04:02;6.00;99.90
20885;DHT22;10602;48.000;9.654;2022-11-15T07:06:29;6.10;99.90
20885;DHT22;10602;48.000;9.654;2022-11-15T07:08:57;6.50;99.90
20885;DHT22;10602;48.000;9.654;2022-11-15T07:11:24;7.00;99.90
20885;DHT22;10602;48.000;9.654;2022-11-15T07:13:52;7.50;99.90
20885;DHT22;10602;48.000;9.654;2022-11-15T07:16:19;7.80;99.90
20885;DHT22;10602;48.000;9.654;2022-11-15T07:18:47;7.90;99.90
20885;DHT22;10602;48.000;9.654;2022-11-15T07:21:14;7.50;99.90
20885;DHT22;10602;48.000;9.654;2022-11-15T07:23:42;7.20;99.90
20885;DHT22;10602;48.000;9.654;2022-11-15T07:26:09;7.50;99.90
20885;DHT22;10602;48.000;9.654;2022-11-15T07:28:37;7.80;99.90
20885;DHT22;10602;48.000;9.654;2022-11-15T07:31:06;8.10;99.90
20885;DHT22;10602;48.000;9.654;2022-11-15T07:33:34;8.60;99.90
20885;DHT22;10602;48.000;9.654;2022-11-15T07:36:03;8.80;99.90
20885;DHT22;10602;48.000;9.654;2022-11-15T07:38:32;8.90;99.90
20885;DHT22;10602;48.000;9.654;2022-11-15T07:41:02;9.40;99.90
20885;DHT22;10602;48.000;9.654;2022-11-15T07:43:29;9.60;99.90
20885;DHT22;10602;48.000;9.654;2022-11-15T07:45:59;9.90;99.90
20885;DHT22;10602;48.000;9.654;2022-11-15T07:48:28;10.30;99.90
20885;DHT22;10602;48.000;9.654;2022-11-15T07:50:55;10.80;99.90
20885;DHT22;10602;48.000;9.654;2022-11-15T07:53:23;11.20;99.90
20885;DHT22;10602;48.000;9.654;2022-11-15T07:55:50;11.60;99.90
20885;DHT22;10602;48.000;9.654;2022-11-15T07:58:19;12.00;99.90
20885;DHT22;10602;48.000;9.654;2022-11-15T08:00:47;12.70;99.90
20885;DHT22;10602;48.000;9.654;2022-11-15T08:03:16;13.10;99.90
20885;DHT22;10602;48.000;9.654;2022-11-15T08:05:49;14.10;99.90
20885;DHT22;10602;48.000;9.654;2022-11-15T08:08:14;14.10;97.50
20885;DHT22;10602;48.000;9.654;2022-11-15T08:10:42;14.30;96.30
20885;DHT22;10602;48.000;9.654;2022-11-15T08:13:11;14.80;95.70
20885;DHT22;10602;48.000;9.654;2022-11-15T08:15:39;14.80;93.70
20885;DHT22;10602;48.000;9.654;2022-11-15T08:18:15;15.30;92.30
20885;DHT22;10602;48.000;9.654;2022-11-15T08:20:40;15.50;91.60
20885;DHT22;10602;48.000;9.654;2022-11-15T08:23:10;16.30;92.10
20885;DHT22;10602;48.000;9.654;2022-11-15T08:25:39;17.50;88.00
20885;DHT22;10602;48.000;9.654;2022-11-15T08:28:09;17.70;84.10
20885;DHT22;10602;48.000;9.654;2022-11-15T08:30:39;18.20;82.90
20885;DHT22;10602;48.000;9.654;2022-11-15T08:33:13;17.80;79.10
20885;DHT22;10602;48.000;9.654;2022-11-15T08:35:41;17.10;79.00
20885;DHT22;10602;48.000;9.654;2022-11-15T08:38:09;16.70;82.50
20885;DHT22;10602;48.000;9.654;2022-11-15T08:40:37;16.70;82.40
20885;DHT22;10602;48.000;9.654;2022-11-15T08:43:05;17.30;80.50
20885;DHT22;10602;48.000;9.654;2022-11-15T08:45:34;17.60;79.40
20885;DHT22;10602;48.000;9.654;2022-11-15T08:48:03;18.00;77.10
20885;DHT22;10602;48.000;9.654;2022-11-15T08:50:30;18.40;76.30
20885;DHT22;10602;48.000;9.654;2022-11-15T08:53:03;18.10;75.00
20885;DHT22;10602;48.000;9.654;2022-11-15T08:55:27;17.40;74.50
20885;DHT22;10602;48.000;9.654;2022-11-15T08:57:57;17.20;78.40
20885;DHT22;10602;48.000;9.654;2022-11-15T09:00:24;16.80;78.00
20885;DHT22;10602;48.000;9.654;2022-11-15T09:02:52;16.80;79.50
20885;DHT22;10602;48.000;9.654;2022-11-15T09:05:19;17.20;80.40
20885;DHT22;10602;48.000;9.654;2022-11-15T09:07:47;17.70;78.50
20885;DHT22;10602;48.000;9.654;2022-11-15T09:10:14;18.00;76.10
20885;DHT22;10602;48.000;9.654;2022-11-15T09:12:42;18.20;76.30
20885;DHT22;10602;48.000;9.654;2022-11-15T09:15:10;18.20;77.10
20885;DHT22;10602;48.000;9.654;2022-11-15T09:17:38;18.70;76.20
20885;DHT22;10602;48.000;9.654;2022-11-15T09:20:06;18.80;73.60
20885;DHT22;10602;48.000;9.654;2022-11-15T09:22:34;18.70;74.80
20885;DHT22;10602;48.000;9.654;2022-11-15T09:25:03;18.90;74.70
20885;DHT22;10602;48.000;9.654;2022-11-15T09:27:31;19.20;73.80
20885;DHT22;10602;48.000;9.654;2022-11-15T09:29:59;19.10;68.90
20885;DHT22;10602;48.000;9.654;2022-11-15T09:32:28;19.10;71.60
20885;DHT22;10602;48.000;9.654;2022-11-15T09:34:57;19.40;70.90
20885;DHT22;10602;48.000;9.654;2022-11-15T09:37:24;19.60;69.60
20885;DHT22;10602;48.000;9.654;2022-11-15T09:39:52;20.20;70.00
20885;DHT22;10602;48.000;9.654;2022-11-15T09:42:37;20.30;67.90
20885;DHT22;10602;48.000;9.654;2022-11-15T09:45:20;19.90;65.80
20885;DHT22;10602;48.000;9.654;2022-11-15T09:47:58;19.30;70.10
20885;DHT22;10602;48.000;9.654;2022-11-15T09:50:34;19.60;70.00
20885;DHT22;10602;48.000;9.654;2022-11-15T09:53:00;19.90;68.80
20885;DHT22;10602;48.000;9.654;2022-11-15T09:55:35;20.40;67.00
20885;DHT22;10602;48.000;9.654;2022-11-15T09:58:05;21.10;67.20
20885;DHT22;10602;48.000;9.654;2022-11-15T10:00:35;21.40;64.40
20885;DHT22;10602;48.000;9.654;2022-11-15T10:03:07;21.60;62.40
20885;DHT22;10602;48.000;9.654;2022-11-15T10:05:42;21.70;62.80
20885;DHT22;10602;48.000;9.654;2022-11-15T10:08:22;21.50;61.70
20885;DHT22;10602;48.000;9.654;2022-11-15T10:10:55;21.40;62.60
20885;DHT22;10602;48.000;9.654;2022-11-15T10:13:25;22.20;61.10
20885;DHT22;10602;48.000;9.654;2022-11-15T10:15:56;22.40;60.40
20885;DHT22;10602;48.000;9.654;2022-11-15T10:18:33;21.90;58.80
20885;DHT22;10602;48.000;9.654;2022-11-15T10:20:59;22.10;59.90
20885;DHT22;10602;48.000;9.654;2022-11-15T10:23:27;22.00;58.30
20885;DHT22;10602;48.000;9.654;2022-11-15T10:25:57;21.90;59.10
20885;DHT22;10602;48.000;9.654;2022-11-15T10:28:29;22.00;60.20
20885;DHT22;10602;48.000;9.654;2022-11-15T10:30:59;22.50;59.30
20885;DHT22;10602;48.000;9.654;2022-11-15T10:38:52;22.20;58.50
20885;DHT22;10602;48.000;9.654;2022-11-15T10:41:31;22.30;59.00
20885;DHT22;10602;48.000;9.654;2022-11-15T10:44:10;22.40;59.60
20885;DHT22;10602;48.000;9.654;2022-11-15T10:46:39;23.10;58.30
20885;DHT22;10602;48.000;9.654;2022-11-15T10:49:13;22.90;57.30
20885;DHT22;10602;48.000;9.654;2022-11-15T10:54:33;24.50;54.90
20885;DHT22;10602;48.000;9.654;2022-11-15T10:57:04;24.30;53.90
20885;DHT22;10602;48.000;9.654;2022-11-15T10:59:32;24.10;53.70
20885;DHT22;10602;48.000;9.654;2022-11-15T11:02:01;24.20;53.20
20885;DHT22;10602;48.000;9.654;2022-11-15T11:04:28;24.70;52.80
20885;DHT22;10602;48.000;9.654;2022-11-15T11:06:59;24.40;52.70
20885;DHT22;10602;48.000;9.654;2022-11-15T11:09:35;24.70;52.30
20885;DHT22;10602;48.000;9.654;2022-11-15T11:12:05;24.20;52.10
20885;DHT22;10602;48.000;9.654;2022-11-15T11:14:35;23.00;53.10
20885;DHT22;10602;48.000;9.654;2022-11-15T11:17:06;23.00;54.00
20885;DHT22;10602;48.000;9.654;2022-11-15T11:33:40;21.80;56.20
20885;DHT22;10602;48.000;9.654;2022-11-15T11:35:59;22.00;57.10
20885;DHT22;10602;48.000;9.654;2022-11-15T11:38:45;21.80;56.40
20885;DHT22;10602;48.000;9.654;2022-11-15T11:43:53;19.60;60.10
20885;DHT22;10602;48.000;9.654;2022-11-15T11:46:31;18.70;63.90
20885;DHT22;10602;48.000;9.654;2022-11-15T11:49:15;17.80;67.20
20885;DHT22;10602;48.000;9.654;2022-11-15T11:51:53;16.90;72.90
20885;DHT22;10602;48.000;9.654;2022-11-15T11:54:38;16.20;80.40
20885;DHT22;10602;48.000;9.654;2022-11-15T11:57:11;15.60;88.90
20885;DHT22;10602;48.000;9.654;2022-11-15T12:00:00;15.00;94.40
20885;DHT22;10602;48.000;9.654;2022-11-15T12:02:31;14.50;96.90
20885;DHT22;10602;48.000;9.654;2022-11-15T12:05:11;14.10;99.90
20885;DHT22;10602;48.000;9.654;2022-11-15T12:07:36;13.60;99.90
20885;DHT22;10602;48.000;9.654;2022-11-15T12:12:50;13.20;99.90
20885;DHT22;10602;48.000;9.654;2022-11-15T12:15:30;13.10;99.90
20885;DHT22;10602;48.000;9.654;2022-11-15T12:17:57;13.10;99.90
20885;DHT22;10602;48.000;9.654;2022-11-15T12:20:34;13.00;99.90
20885;DHT22;10602;48.000;9.654;2022-11-15T12:26:00;13.10;99.90
20885;DHT22;10602;48.000;9.654;2022-11-15T12:31:03;12.70;99.90
20885;DHT22;10602;48.000;9.654;2022-11-15T12:33:40;12.50;99.90
20885;DHT22;10602;48.000;9.654;2022-11-15T12:38:55;12.80;99.90
20885;DHT22;10602;48.000;9.654;2022-11-15T12:41:25;12.60;99.90
20885;DHT22;10602;48.000;9.654;2022-11-15T12:43:53;12.70;99.90
20885;DHT22;10602;48.000;9.654;2022-11-15T12:59:56;12.50;99.90
20885;DHT22;10602;48.000;9.654;2022-11-15T13:02:34;12.30;99.90
20885;DHT22;10602;48.000;9.654;2022-11-15T13:10:32;11.80;99.90
20885;DHT22;10602;48.000;9.654;2022-11-15T13:13:02;11.70;99.90
20885;DHT22;10602;48.000;9.654;2022-11-15T13:15:54;11.60;99.90
20885;DHT22;10602;48.000;9.654;2022-11-15T13:18:35;11.50;99.90
20885;DHT22;10602;48.000;9.654;2022-11-15T13:21:16;11.50;99.90
20885;DHT22;10602;48.000;9.654;2022-11-15T13:23:35;11.40;99.90
20885;DHT22;10602;48.000;9.654;2022-11-15T13:26:11;11.30;99.90
20885;DHT22;10602;48.000;9.654;2022-11-15T13:31:40;11.20;99.90
20885;DHT22;10602;48.000;9.654;2022-11-15T13:36:53;11.40;99.90
20885;DHT22;10602;48.000;9.654;2022-11-15T13:39:25;11.50;99.90
20885;DHT22;10602;48.000;9.654;2022-11-15T13:41:52;11.60;99.90
20885;DHT22;10602;48.000;9.654;2022-11-15T13:44:27;11.60;99.90
20885;DHT22;10602;48.000;9.654;2022-11-15T13:47:02;11.60;99.90
20885;DHT22;10602;48.000;9.654;2022-11-15T13:49:32;11.60;99.90
20885;DHT22;10602;48.000;9.654;2022-11-15T13:52:06;11.50;99.90
20885;DHT22;10602;48.000;9.654;2022-11-15T13:54:50;11.60;99.90
20885;DHT22;10602;48.000;9.654;2022-11-15T13:57:21;11.60;99.90
20885;DHT22;10602;48.000;9.654;2022-11-15T13:59:52;11.50;99.90
20885;DHT22;10602;48.000;9.654;2022-11-15T14:02:33;11.20;99.90
20885;DHT22;10602;48.000;9.654;2022-11-15T14:05:17;11.20;99.90
20885;DHT22;10602;48.000;9.654;2022-11-15T14:07:57;11.30;99.90
20885;DHT22;10602;48.000;9.654;2022-11-15T14:10:32;11.10;99.90
20885;DHT22;10602;48.000;9.654;2022-11-15T14:13:01;10.90;99.90
20885;DHT22;10602;48.000;9.654;2022-11-15T14:15:37;10.90;99.90
20885;DHT22;10602;48.000;9.654;2022-11-15T14:18:06;10.90;99.90
20885;DHT22;10602;48.000;9.654;2022-11-15T14:20:38;10.80;99.90
20885;DHT22;10602;48.000;9.654;2022-11-15T14:23:26;10.80;99.90
20885;DHT22;10602;48.000;9.654;2022-11-15T14:25:56;10.80;99.90
20885;DHT22;10602;48.000;9.654;2022-11-15T14:30:57;10.50;99.90
20885;DHT22;10602;48.000;9.654;2022-11-15T14:36:04;10.40;99.90
20885;DHT22;10602;48.000;9.654;2022-11-15T14:38:32;10.30;99.90
20885;DHT22;10602;48.000;9.654;2022-11-15T14:40:59;10.40;99.90
20885;DHT22;10602;48.000;9.654;2022-11-15T14:43:27;10.40;99.90
20885;DHT22;10602;48.000;9.654;2022-11-15T14:45:54;10.40;99.90
20885;DHT22;10602;48.000;9.654;2022-11-15T14:48:22;10.40;99.90
20885;DHT22;10602;48.000;9.654;2022-11-15T14:50:49;10.40;99.90
20885;DHT22;10602;48.000;9.654;2022-11-15T14:53:18;10.40;99.90
20885;DHT22;10602;48.000;9.654;2022-11-15T14:55:46;10.30;99.90
20885;DHT22;10602;48.000;9.654;2022-11-15T14:58:13;10.40;99.90
20885;DHT22;10602;48.000;9.654;2022-11-15T15:00:41;10.30;99.90
20885;DHT22;10602;48.000;9.654;2022-11-15T15:03:09;10.30;99.90
20885;DHT22;10602;48.000;9.654;2022-11-15T15:05:40;10.20;99.90
20885;DHT22;10602;48.000;9.654;2022-11-15T15:08:08;10.10;99.90
20885;DHT22;10602;48.000;9.654;2022-11-15T15:10:43;10.10;99.90
20885;DHT22;10602;48.000;9.654;2022-11-15T15:13:15;10.00;99.90
20885;DHT22;10602;48.000;9.654;2022-11-15T15:15:43;10.00;99.90
20885;DHT22;10602;48.000;9.654;2022-11-15T15:18:11;10.00;99.90
20885;DHT22;10602;48.000;9.654;2022-11-15T15:20:39;10.00;99.90
20885;DHT22;10602;48.000;9.654;2022-11-15T15:23:18;9.90;99.90
20885;DHT22;10602;48.000;9.654;2022-11-15T15:25:47;9.80;99.90
20885;DHT22;10602;48.000;9.654;2022-11-15T15:28:16;9.80;99.90
20885;DHT22;10602;48.000;9.654;2022-11-15T15:30:44;9.70;99.90
20885;DHT22;10602;48.000;9.654;2022-11-15T15:33:11;9.70;99.90
20885;DHT22;10602;48.000;9.654;2022-11-15T15:35:39;9.60;99.90
20885;DHT22;10602;48.000;9.654;2022-11-15T15:38:12;9.60;99.90
20885;DHT22;10602;48.000;9.654;2022-11-15T15:40:41;9.60;99.90
20885;DHT22;10602;48.000;9.654;2022-11-15T15:43:09;9.60;99.90
20885;DHT22;10602;48.000;9.654;2022-11-15T15:45:38;9.60;99.90
20885;DHT22;10602;48.000;9.654;2022-11-15T15:48:08;9.60;99.90
20885;DHT22;10602;48.000;9.654;2022-11-15T15:50:35;9.60;99.90
20885;DHT22;10602;48.000;9.654;2022-11-15T15:53:04;9.60;99.90
20885;DHT22;10602;48.000;9.654;2022-11-15T15:55:31;9.50;99.90
20885;DHT22;10602;48.000;9.654;2022-11-15T15:57:59;9.50;99.90
20885;DHT22;10602;48.000;9.654;2022-11-15T16:00:26;9.40;99.90
20885;DHT22;10602;48.000;9.654;2022-11-15T16:03:10;9.40;99.90
20885;DHT22;10602;48.000;9.654;2022-11-15T16:09:00;9.30;99.90
20885;DHT22;10602;48.000;9.654;2022-11-15T16:31:37;9.10;99.90
20885;DHT22;10602;48.000;9.654;2022-11-15T16:34:42;9.10;99.90
20885;DHT22;10602;48.000;9.654;2022-11-15T16:48:34;9.00;99.90
20885;DHT22;10602;48.000;9.654;2022-11-15T16:51:04;9.00;99.90
20885;DHT22;10602;48.000;9.654;2022-11-15T16:53:32;8.90;99.90
20885;DHT22;10602;48.000;9.654;2022-11-15T16:56:01;8.90;99.90
20885;DHT22;10602;48.000;9.654;2022-11-15T16:58:30;8.90;99.90
20885;DHT22;10602;48.000;9.654;2022-11-15T17:00:59;8.90;99.90
20885;DHT22;10602;48.000;9.654;2022-11-15T17:03:34;8.90;99.90
20885;DHT22;10602;48.000;9.654;2022-11-15T17:05:58;8.80;99.90
20885;DHT22;10602;48.000;9.654;2022-11-15T17:08:27;8.80;99.90
20885;DHT22;10602;48.000;9.654;2022-11-15T17:10:58;8.80;99.90
20885;DHT22;10602;48.000;9.654;2022-11-15T17:13:24;8.70;99.90
20885;DHT22;10602;48.000;9.654;2022-11-15T17:16:02;8.70;99.90
20885;DHT22;10602;48.000;9.654;2022-11-15T17:18:24;8.70;99.90
20885;DHT22;10602;48.000;9.654;2022-11-15T17:20:53;8.70;99.90
20885;DHT22;10602;48.000;9.654;2022-11-15T17:23:22;8.70;99.90
20885;DHT22;10602;48.000;9.654;2022-11-15T17:26:04;8.70;99.90
20885;DHT22;10602;48.000;9.654;2022-11-15T17:28:34;8.70;99.90
20885;DHT22;10602;48.000;9.654;2022-11-15T17:31:37;8.70;99.90
20885;DHT22;10602;48.000;9.654;2022-11-15T17:33:39;8.60;99.90
20885;DHT22;10602;48.000;9.654;2022-11-15T17:36:09;8.60;99.90
20885;DHT22;10602;48.000;9.654;2022-11-15T17:38:40;8.50;99.90
20885;DHT22;10602;48.000;9.654;2022-11-15T17:41:12;8.50;99.90
20885;DHT22;10602;48.000;9.654;2022-11-15T17:43:43;8.50;99.90
20885;DHT22;10602;48.000;9.654;2022-11-15T17:46:15;8.40;99.90
20885;DHT22;10602;48.000;9.654;2022-11-15T17:48:44;8.40;99.90
20885;DHT22;10602;48.000;9.654;2022-11-15T17:51:14;8.40;99.90
20885;DHT22;10602;48.000;9.654;2022-11-15T17:53:44;8.40;99.90
20885;DHT22;10602;48.000;9.654;2022-11-15T17:56:17;8.50;99.90
20885;DHT22;10602;48.000;9.654;2022-11-15T17:58:56;8.50;99.90
20885;DHT22;10602;48.000;9.654;2022-11-15T18:01:26;8.50;99.90
20885;DHT22;10602;48.000;9.654;2022-11-15T18:03:58;8.50;99.90
20885;DHT22;10602;48.000;9.654;2022-11-15T18:06:30;8.50;99.90
20885;DHT22;10602;48.000;9.654;2022-11-15T18:08:58;8.50;99.90
20885;DHT22;10602;48.000;9.654;2022-11-15T18:11:28;8.40;99.90
20885;DHT22;10602;48.000;9.654;2022-11-15T18:13:59;8.40;99.90
20885;DHT22;10602;48.000;9.654;2022-11-15T18:16:31;8.40;99.90
20885;DHT22;10602;48.000;9.654;2022-11-15T18:18:59;8.40;99.90
20885;DHT22;10602;48.000;9.654;2022-11-15T18:21:30;8.40;99.90
20885;DHT22;10602;48.000;9.654;2022-11-15T18:24:00;8.40;99.90
20885;DHT22;10602;48.000;9.654;2022-11-15T18:26:29;8.40;99.90
20885;DHT22;10602;48.000;9.654;2022-11-15T18:29:03;8.30;99.90
20885;DHT22;10602;48.000;9.654;2022-11-15T20:54:47;7.80;99.90
20885;DHT22;10602;48.000;9.654;2022-11-15T20:57:15;7.80;99.90
20885;DHT22;10602;48.000;9.654;2022-11-15T20:59:43;7.80;99.90
20885;DHT22;10602;48.000;9.654;2022-11-15T21:02:14;7.80;99.90
20885;DHT22;10602;48.000;9.654;2022-11-15T21:04:43;7.90;99.90
20885;DHT22;10602;48.000;9.654;2022-11-15T21:07:12;7.90;99.90
20885;DHT22;10602;48.000;9.654;2022-11-15T21:09:39;7.90;99.90
20885;DHT22;10602;48.000;9.654;2022-11-15T21:12:24;7.90;99.90
20885;DHT22;10602;48.000;9.654;2022-11-15T21:14:52;7.90;99.90
20885;DHT22;10602;48.000;9.654;2022-11-15T21:17:20;7.90;99.90
20885;DHT22;10602;48.000;9.654;2022-11-15T21:19:48;8.00;99.90
20885;DHT22;10602;48.000;9.654;2022-11-15T21:22:17;8.00;99.90
20885;DHT22;10602;48.000;9.654;2022-11-15T21:24:45;8.00;99.90
20885;DHT22;10602;48.000;9.654;2022-11-15T21:27:15;8.00;99.90
20885;DHT22;10602;48.000;9.654;2022-11-15T21:29:47;8.00;99.90
20885;DHT22;10602;48.000;9.654;2022-11-15T21:32:15;8.10;99.90
20885;DHT22;10602;48.000;9.654;2022-11-15T21:34:44;8.00;99.90
20885;DHT22;10602;48.000;9.654;2022-11-15T21:37:12;8.00;99.90
20885;DHT22;10602;48.000;9.654;2022-11-15T21:39:43;8.00;99.90
20885;DHT22;10602;48.000;9.654;2022-11-15T21:42:08;8.00;99.90
20885;DHT22;10602;48.000;9.654;2022-11-15T21:44:36;8.00;99.90
20885;DHT22;10602;48.000;9.654;2022-11-15T21:47:03;8.00;99.90
20885;DHT22;10602;48.000;9.654;2022-11-15T21:49:31;8.00;99.90
20885;DHT22;10602;48.000;9.654;2022-11-15T21:51:58;8.00;99.90
20885;DHT22;10602;48.000;9.654;2022-11-15T21:54:26;8.00;99.90
20885;DHT22;10602;48.000;9.654;2022-11-15T21:56:54;8.00;99.90
20885;DHT22;10602;48.000;9.654;2022-11-15T21:59:21;8.00;99.90
20885;DHT22;10602;48.000;9.654;2022-11-15T22:01:49;8.00;99.90
20885;DHT22;10602;48.000;9.654;2022-11-15T22:04:34;8.00;99.90
20885;DHT22;10602;48.000;9.654;2022-11-15T22:07:04;7.90;99.90
20885;DHT22;10602;48.000;9.654;2022-11-15T22:09:30;7.90;99.90
20885;DHT22;10602;48.000;9.654;2022-11-15T22:11:59;7.90;99.90
20885;DHT22;10602;48.000;9.654;2022-11-15T22:14:27;8.00;99.90
20885;DHT22;10602;48.000;9.654;2022-11-15T22:16:54;8.00;99.90
20885;DHT22;10602;48.000;9.654;2022-11-15T22:19:22;8.00;99.90
20885;DHT22;10602;48.000;9.654;2022-11-15T22:21:50;8.00;99.90
20885;DHT22;10602;48.000;9.654;2022-11-15T22:24:17;8.00;99.90
20885;DHT22;10602;48.000;9.654;2022-11-15T22:26:45;8.00;99.90
20885;DHT22;10602;48.000;9.654;2022-11-15T22:29:12;8.00;99.90
20885;DHT22;10602;48.000;9.654;2022-11-15T22:31:40;8.00;99.90
20885;DHT22;10602;48.000;9.654;2022-11-15T22:34:07;8.10;99.90
20885;DHT22;10602;48.000;9.654;2022-11-15T22:36:35;8.10;99.90
20885;DHT22;10602;48.000;9.654;2022-11-15T22:39:03;8.10;99.90
20885;DHT22;10602;48.000;9.654;2022-11-15T22:41:31;8.10;99.90
20885;DHT22;10602;48.000;9.654;2022-11-15T22:43:59;8.10;99.90
20885;DHT22;10602;48.000;9.654;2022-11-15T22:46:26;8.20;99.90
20885;DHT22;10602;48.000;9.654;2022-11-15T22:48:55;8.20;99.90
20885;DHT22;10602;48.000;9.654;2022-11-15T22:51:23;8.20;99.90
20885;DHT22;10602;48.000;9.654;2022-11-15T22:53:50;8.20;99.90
20885;DHT22;10602;48.000;9.654;2022-11-15T22:56:18;8.20;99.90
20885;DHT22;10602;48.000;9.654;2022-11-15T22:58:46;8.20;99.90
20885;DHT22;10602;48.000;9.654;2022-11-15T23:01:18;8.20;99.90
20885;DHT22;10602;48.000;9.654;2022-11-15T23:03:48;8.20;99.90
20885;DHT22;10602;48.000;9.654;2022-11-15T23:06:15;8.20;99.90
20885;DHT22;10602;48.000;9.654;2022-11-15T23:08:43;8.20;99.90
20885;DHT22;10602;48.000;9.654;2022-11-15T23:11:10;8.20;99.90
20885;DHT22;10602;48.000;9.654;2022-11-15T23:13:56;8.20;99.90
20885;DHT22;10602;48.000;9.654;2022-11-15T23:16:23;8.20;99.90
20885;DHT22;10602;48.000;9.654;2022-11-15T23:19:08;8.20;99.90
20885;DHT22;10602;48.000;9.654;2022-11-15T23:21:40;8.20;99.90
20885;DHT22;10602;48.000;9.654;2022-11-15T23:24:26;8.20;99.90
20885;DHT22;10602;48.000;9.654;2022-11-15T23:26:55;8.20;99.90
20885;DHT22;10602;48.000;9.654;2022-11-15T23:29:24;8.20;99.90
20885;DHT22;10602;48.000;9.654;2022-11-15T23:31:54;8.20;99.90
20885;DHT22;10602;48.000;9.654;2022-11-15T23:34:44;8.20;99.90
20885;DHT22;10602;48.000;9.654;2022-11-15T23:37:13;8.20;99.90
20885;DHT22;10602;48.000;9.654;2022-11-15T23:39:41;8.20;99.90
20885;DHT22;10602;48.000;9.654;2022-11-15T23:42:09;8.20;99.90
20885;DHT22;10602;48.000;9.654;2022-11-15T23:44:38;8.20;99.90
20885;DHT22;10602;48.000;9.654;2022-11-15T23:47:05;8.20;99.90
20885;DHT22;10602;48.000;9.654;2022-11-15T23:49:33;8.20;99.90
20885;DHT22;10602;48.000;9.654;2022-11-15T23:52:01;8.20;99.90
20885;DHT22;10602;48.000;9.654;2022-11-15T23:54:28;8.20;99.90
20885;DHT22;10602;48.000;9.654;2022-11-15T23:56:56;8.20;99.90
20885;DHT22;10602;48.000;9.654;2022-11-15T23:59:23;8.20;99.90
